Time;durP1;ratioP1;P1;durP2;ratioP2;P2;SDS_P1;SDS_P2;PMS_P1;PMS_P2;Temp;Humidity;BMP_temperature;BMP_pressure;BME280_temperature;BME280_humidity;BME280_pressure;Samples;Min_cycle;Max_cycle;Signal;HPM_P1;HPM_P2
2021/09/09 00:02:24;;;;;;;17.52;10.20;;;15.80;99.90;;;;;;4994022;28;20049;-77
2021/09/09 00:04:51;;;;;;;17.63;10.70;;;15.90;99.90;;;;;;5001555;28;20557;-75
2021/09/09 00:07:22;;;;;;;17.00;10.38;;;15.80;99.90;;;;;;4994682;28;21255;-76
2021/09/09 00:09:56;;;;;;;16.77;10.55;;;15.70;99.90;;;;;;4996950;28;20088;-76
2021/09/09 00:12:34;;;;;;;17.02;9.98;;;15.70;99.90;;;;;;4994819;28;20088;-75
2021/09/09 00:15:01;;;;;;;19.27;10.82;;;15.70;99.90;;;;;;4983076;28;20045;-78
2021/09/09 00:17:30;;;;;;;19.38;10.55;;;15.70;99.90;;;;;;4980759;28;20476;-77
2021/09/09 00:19:57;;;;;;;20.08;10.77;;;15.70;99.90;;;;;;4986328;28;20358;-75
2021/09/09 00:22:33;;;;;;;20.17;10.02;;;15.70;99.90;;;;;;5018376;28;20061;-75
2021/09/09 00:25:01;;;;;;;16.90;10.95;;;15.60;99.90;;;;;;5017131;28;20713;-75
2021/09/09 00:27:28;;;;;;;22.70;11.27;;;15.70;99.90;;;;;;5022845;28;20073;-76
2021/09/09 00:29:55;;;;;;;15.65;10.10;;;15.50;99.90;;;;;;5018101;28;21078;-75
2021/09/09 00:32:28;;;;;;;16.42;10.10;;;15.60;99.90;;;;;;5018823;28;20041;-77
2021/09/09 00:34:57;;;;;;;15.07;10.18;;;15.50;99.90;;;;;;5008854;28;20810;-77
2021/09/09 00:37:24;;;;;;;18.30;9.85;;;15.60;99.90;;;;;;5010246;28;20092;-78
2021/09/09 00:39:51;;;;;;;16.35;10.13;;;15.50;99.90;;;;;;5013069;28;20053;-75
2021/09/09 00:42:18;;;;;;;18.85;10.32;;;15.40;99.90;;;;;;5009857;28;20053;-76
2021/09/09 00:44:45;;;;;;;18.17;10.13;;;15.40;99.90;;;;;;5012622;28;20059;-78
2021/09/09 00:47:13;;;;;;;19.85;10.25;;;15.40;99.90;;;;;;5010272;28;20060;-80
2021/09/09 00:49:51;;;;;;;17.02;10.60;;;15.30;99.90;;;;;;5011285;28;20111;-80
2021/09/09 00:52:28;;;;;;;18.20;10.60;;;15.30;99.90;;;;;;5009379;28;20052;-79
2021/09/09 00:54:55;;;;;;;21.88;10.60;;;15.40;99.90;;;;;;5009204;28;20154;-81
2021/09/09 00:57:26;;;;;;;20.48;11.13;;;15.40;99.90;;;;;;5007463;28;20049;-79
2021/09/09 00:59:54;;;;;;;18.23;10.63;;;15.30;99.90;;;;;;5013068;28;20053;-80
2021/09/09 01:02:21;;;;;;;17.95;10.75;;;15.30;99.90;;;;;;5011649;28;20112;-77
2021/09/09 01:04:49;;;;;;;15.32;10.15;;;15.20;99.90;;;;;;5010903;28;20091;-80
2021/09/09 01:07:17;;;;;;;18.75;10.60;;;15.20;99.90;;;;;;5008487;28;20497;-82
2021/09/09 01:09:46;;;;;;;16.33;10.18;;;15.10;99.90;;;;;;5004666;28;20049;-78
2021/09/09 01:12:17;;;;;;;17.33;10.88;;;15.00;99.90;;;;;;5009046;28;20065;-78
2021/09/09 01:14:44;;;;;;;17.52;9.88;;;15.00;99.90;;;;;;5009325;28;20068;-78
2021/09/09 01:17:14;;;;;;;19.70;10.55;;;15.00;99.90;;;;;;5007907;28;20041;-75
2021/09/09 01:19:57;;;;;;;14.05;9.88;;;14.90;99.90;;;;;;5008243;28;20501;-76
2021/09/09 01:22:24;;;;;;;17.70;10.38;;;14.90;99.90;;;;;;5012655;28;20045;-75
2021/09/09 01:24:56;;;;;;;17.02;10.85;;;14.90;99.90;;;;;;5010973;28;20041;-76
2021/09/09 01:27:23;;;;;;;19.92;11.48;;;14.90;99.90;;;;;;5013026;28;20049;-80
2021/09/09 01:29:51;;;;;;;16.27;9.98;;;15.00;99.90;;;;;;5007289;28;20084;-77
2021/09/09 01:32:18;;;;;;;15.95;9.88;;;15.00;99.90;;;;;;5008295;28;20056;-79
2021/09/09 01:34:50;;;;;;;16.65;10.45;;;14.90;99.90;;;;;;5020010;28;20049;-77
2021/09/09 01:37:37;;;;;;;16.25;10.85;;;14.80;99.90;;;;;;5020242;28;20052;-77
2021/09/09 01:40:07;;;;;;;18.13;11.07;;;14.80;99.90;;;;;;5016107;28;20142;-77
2021/09/09 01:42:35;;;;;;;17.17;10.98;;;14.70;99.90;;;;;;5018545;28;20139;-78
2021/09/09 01:45:08;;;;;;;19.63;10.57;;;14.70;99.90;;;;;;5023067;28;20085;-78
2021/09/09 01:47:39;;;;;;;16.08;10.65;;;14.80;99.90;;;;;;5022183;28;20424;-79
2021/09/09 01:50:10;;;;;;;19.48;11.23;;;14.80;99.90;;;;;;5020381;28;20884;-77
2021/09/09 01:52:37;;;;;;;21.65;12.00;;;14.80;99.90;;;;;;5020756;28;20083;-77
2021/09/09 01:55:09;;;;;;;15.80;10.35;;;14.70;99.90;;;;;;5020051;28;20053;-76
2021/09/09 01:57:38;;;;;;;19.25;10.70;;;14.70;99.90;;;;;;5021753;28;20134;-77
2021/09/09 02:00:11;;;;;;;20.40;11.57;;;14.70;99.90;;;;;;5020768;28;20049;-76
2021/09/09 02:02:39;;;;;;;17.88;11.00;;;14.70;99.90;;;;;;5023213;28;20139;-79
2021/09/09 02:05:14;;;;;;;17.52;11.25;;;14.70;99.90;;;;;;5019887;28;20057;-79
2021/09/09 02:07:41;;;;;;;22.20;10.82;;;14.70;99.90;;;;;;5023997;28;20049;-80
2021/09/09 02:10:22;;;;;;;16.42;10.85;;;14.70;99.90;;;;;;5019658;28;20505;-78
2021/09/09 02:12:55;;;;;;;19.00;10.70;;;14.60;99.90;;;;;;5021455;28;20551;-77
2021/09/09 02:15:22;;;;;;;18.38;10.57;;;14.50;99.90;;;;;;5018281;28;20516;-76
2021/09/09 02:17:49;;;;;;;18.60;11.13;;;14.50;99.90;;;;;;5020754;28;20044;-80
2021/09/09 02:20:16;;;;;;;18.33;10.95;;;14.50;99.90;;;;;;5019305;28;20107;-77
2021/09/09 02:22:43;;;;;;;18.60;10.80;;;14.40;99.90;;;;;;5023985;28;20059;-81
2021/09/09 02:25:22;;;;;;;20.80;11.27;;;14.30;99.90;;;;;;5021250;28;20052;-76
2021/09/09 02:27:49;;;;;;;19.75;11.88;;;14.30;99.90;;;;;;5004445;28;20080;-76
2021/09/09 02:30:19;;;;;;;16.48;10.75;;;14.30;99.90;;;;;;5023487;28;20045;-78
2021/09/09 02:32:46;;;;;;;26.30;12.38;;;14.30;99.90;;;;;;5022622;28;20055;-76
2021/09/09 02:35:13;;;;;;;19.50;11.88;;;14.20;99.90;;;;;;5019761;28;20048;-79
2021/09/09 02:37:41;;;;;;;23.77;11.38;;;14.20;99.90;;;;;;5021838;28;20513;-76
2021/09/09 02:40:12;;;;;;;19.67;11.75;;;14.20;99.90;;;;;;5023754;28;20084;-75
2021/09/09 02:43:03;;;;;;;20.15;11.25;;;14.30;99.90;;;;;;5019949;28;20106;-77
2021/09/09 02:45:56;;;;;;;19.27;11.93;;;14.20;99.90;;;;;;5018743;28;20049;-77
2021/09/09 02:48:28;;;;;;;20.35;12.35;;;14.10;99.90;;;;;;5034872;28;20281;-79
2021/09/09 02:53:51;;;;;;;23.25;13.13;;;14.10;99.90;;;;;;5013934;28;20513;-77
2021/09/09 02:56:42;;;;;;;22.35;12.55;;;14.10;99.90;;;;;;5032909;28;20049;-78
2021/09/09 03:02:24;;;;;;;21.00;12.50;;;14.00;99.90;;;;;;5033157;28;20125;-80
2021/09/09 03:05:16;;;;;;;21.90;12.10;;;14.10;99.90;;;;;;5032336;28;20103;-77
2021/09/09 03:11:14;;;;;;;18.52;12.00;;;14.00;99.90;;;;;;4992091;28;20058;-78
2021/09/09 03:13:49;;;;;;;18.80;11.93;;;14.00;99.90;;;;;;5030776;28;20056;-77
2021/09/09 03:16:16;;;;;;;20.02;12.88;;;14.00;99.90;;;;;;5032758;28;20381;-77
2021/09/09 03:24:42;;;;;;;21.73;12.02;;;13.80;99.90;;;;;;4873092;29;20060;-75
2021/09/09 03:27:12;;;;;;;21.50;11.63;;;13.80;99.90;;;;;;4876136;29;20068;-75
2021/09/09 03:30:17;;;;;;;20.02;12.13;;;13.90;99.90;;;;;;4875655;29;20131;-76
2021/09/09 03:32:59;;;;;;;19.52;11.65;;;13.90;99.90;;;;;;4858486;29;20061;-76
2021/09/09 03:35:27;;;;;;;20.90;12.45;;;13.90;99.90;;;;;;4922276;28;20077;-75
2021/09/09 03:41:26;;;;;;;20.27;11.70;;;13.90;99.90;;;;;;4993556;28;20050;-75
2021/09/09 03:44:12;;;;;;;19.30;11.52;;;13.80;99.90;;;;;;5011517;28;20111;-75
2021/09/09 03:47:06;;;;;;;26.30;13.32;;;14.00;99.90;;;;;;5011930;28;20068;-75
2021/09/09 03:50:00;;;;;;;21.80;12.18;;;13.70;99.90;;;;;;5009466;28;20060;-76
2021/09/09 03:53:13;;;;;;;20.02;12.45;;;13.80;99.90;;;;;;5015545;28;20056;-78
2021/09/09 03:55:40;;;;;;;23.73;12.65;;;13.70;99.90;;;;;;5015444;28;20077;-78
2021/09/09 03:58:07;;;;;;;18.83;11.98;;;13.70;99.90;;;;;;5016032;28;20132;-78
2021/09/09 04:01:05;;;;;;;22.05;12.88;;;13.70;99.90;;;;;;5020398;28;20053;-78
2021/09/09 04:03:53;;;;;;;;;;;13.80;99.90;;;;;;5011570;28;20049;-77
2021/09/09 04:06:58;;;;;;;20.98;12.68;;;13.60;99.90;;;;;;5007398;28;19964;-76
2021/09/09 04:09:26;;;;;;;19.08;12.30;;;13.60;99.90;;;;;;5014913;28;20052;-76
2021/09/09 04:11:54;;;;;;;19.35;12.88;;;13.70;99.90;;;;;;5012097;28;20080;-75
2021/09/09 04:14:21;;;;;;;20.08;13.15;;;13.70;99.90;;;;;;5011242;28;20057;-79
2021/09/09 04:17:04;;;;;;;18.67;12.23;;;13.70;99.90;;;;;;5009603;28;20049;-77
2021/09/09 04:19:46;;;;;;;22.80;12.77;;;13.60;99.90;;;;;;5010641;28;20049;-77
2021/09/09 04:22:13;;;;;;;19.65;12.13;;;13.70;99.90;;;;;;4995807;28;20053;-77
2021/09/09 04:24:41;;;;;;;20.08;12.90;;;13.70;99.90;;;;;;5010283;28;20513;-77
2021/09/09 04:27:38;;;;;;;19.17;12.15;;;13.60;99.90;;;;;;5008460;28;20049;-76
2021/09/09 04:30:12;;;;;;;21.88;13.35;;;13.70;99.90;;;;;;4997780;28;20479;-76
2021/09/09 04:32:39;;;;;;;20.08;12.75;;;13.60;99.90;;;;;;5011757;28;20399;-76
2021/09/09 04:35:07;;;;;;;20.27;12.65;;;13.60;99.90;;;;;;5004982;28;20049;-76
2021/09/09 04:37:56;;;;;;;21.70;14.07;;;13.50;99.90;;;;;;4998006;28;20111;-76
2021/09/09 04:44:16;;;;;;;25.23;13.98;;;13.40;99.90;;;;;;4995419;28;20168;-77
2021/09/09 04:46:43;;;;;;;19.98;11.77;;;13.50;99.90;;;;;;4994719;28;20050;-78
2021/09/09 04:49:10;;;;;;;21.30;13.07;;;13.50;99.90;;;;;;4995170;28;20049;-77
2021/09/09 04:51:37;;;;;;;22.77;12.10;;;13.50;99.90;;;;;;4997146;28;20053;-79
2021/09/09 04:54:05;;;;;;;19.95;12.15;;;13.50;99.90;;;;;;4995413;28;20053;-78
2021/09/09 04:56:32;;;;;;;20.88;13.25;;;13.50;99.90;;;;;;4996961;28;20069;-79
2021/09/09 04:58:59;;;;;;;18.80;12.90;;;13.70;99.90;;;;;;4995795;28;20058;-79
2021/09/09 05:01:27;;;;;;;25.58;14.32;;;13.70;99.90;;;;;;4993327;28;20054;-76
2021/09/09 05:03:54;;;;;;;24.15;13.20;;;13.70;99.90;;;;;;4996715;28;20049;-78
2021/09/09 05:06:21;;;;;;;21.40;13.55;;;13.80;99.90;;;;;;4994132;28;20494;-77
2021/09/09 05:08:48;;;;;;;24.13;13.70;;;13.80;99.90;;;;;;4994050;28;20522;-79
2021/09/09 05:11:17;;;;;;;22.17;13.80;;;13.80;99.90;;;;;;4997656;28;20459;-77
2021/09/09 05:13:44;;;;;;;20.55;13.45;;;13.80;99.90;;;;;;4992882;28;20049;-76
2021/09/09 05:16:11;;;;;;;26.08;13.57;;;13.80;99.90;;;;;;4991242;28;20128;-79
2021/09/09 05:18:40;;;;;;;24.65;12.18;;;13.80;99.90;;;;;;4994850;28;20054;-82
2021/09/09 05:21:07;;;;;;;21.60;12.55;;;13.80;99.90;;;;;;4993825;28;20121;-79
2021/09/09 05:23:34;;;;;;;22.73;13.52;;;14.00;99.90;;;;;;4996356;28;20103;-78
2021/09/09 05:26:01;;;;;;;20.92;13.60;;;13.90;99.90;;;;;;4992844;28;20054;-78
2021/09/09 05:28:28;;;;;;;23.02;14.70;;;13.80;99.90;;;;;;4992099;28;20478;-79
2021/09/09 05:30:55;;;;;;;21.75;13.13;;;13.90;99.90;;;;;;4996450;28;20049;-80
2021/09/09 05:33:22;;;;;;;21.52;12.65;;;14.00;99.90;;;;;;4995761;28;20045;-76
2021/09/09 05:35:51;;;;;;;23.02;13.30;;;14.10;99.90;;;;;;4994697;28;20123;-76
2021/09/09 05:38:18;;;;;;;21.55;13.77;;;14.10;99.90;;;;;;4997739;28;20774;-78
2021/09/09 05:40:45;;;;;;;20.13;12.35;;;14.10;99.90;;;;;;4993728;28;20053;-78
2021/09/09 05:43:12;;;;;;;20.98;13.23;;;14.20;99.90;;;;;;4995688;28;20057;-81
2021/09/09 05:45:39;;;;;;;21.60;13.68;;;14.30;99.90;;;;;;4999217;28;20481;-79
2021/09/09 05:48:06;;;;;;;20.67;12.68;;;14.30;99.90;;;;;;4998811;28;20046;-78
2021/09/09 05:50:34;;;;;;;22.38;13.55;;;14.30;99.90;;;;;;5000354;28;20050;-79
2021/09/09 05:53:02;;;;;;;21.60;13.13;;;14.30;99.90;;;;;;4997801;28;20053;-77
2021/09/09 05:55:29;;;;;;;23.65;13.73;;;14.30;99.90;;;;;;4997457;28;20045;-77
2021/09/09 05:57:56;;;;;;;21.92;12.20;;;14.50;99.90;;;;;;4999025;28;20088;-77
2021/09/09 06:00:26;;;;;;;22.05;11.80;;;14.40;99.90;;;;;;5000422;28;20809;-80
2021/09/09 06:02:53;;;;;;;21.05;12.38;;;14.50;99.90;;;;;;4998136;28;20586;-75
2021/09/09 06:05:22;;;;;;;24.63;13.02;;;14.50;99.90;;;;;;4997079;28;20045;-75
2021/09/09 06:07:49;;;;;;;22.27;13.40;;;14.60;99.90;;;;;;4996770;28;20069;-74
2021/09/09 06:10:17;;;;;;;24.08;13.30;;;14.60;99.90;;;;;;4997029;28;20160;-75
2021/09/09 06:12:44;;;;;;;25.98;15.02;;;14.70;99.90;;;;;;4997636;28;20054;-74
2021/09/09 06:15:12;;;;;;;23.65;13.77;;;14.70;99.90;;;;;;4996122;28;20046;-75
2021/09/09 06:17:39;;;;;;;21.73;13.50;;;14.80;99.90;;;;;;4992717;28;20085;-75
2021/09/09 06:20:07;;;;;;;24.00;13.60;;;14.80;99.90;;;;;;4992114;28;20125;-74
2021/09/09 06:22:34;;;;;;;22.05;14.32;;;14.90;99.90;;;;;;4992508;28;20046;-75
2021/09/09 06:25:01;;;;;;;21.45;13.38;;;14.90;99.90;;;;;;4989758;28;20148;-75
2021/09/09 06:27:30;;;;;;;19.80;13.00;;;15.00;99.90;;;;;;4992368;28;20078;-76
2021/09/09 06:29:57;;;;;;;22.98;12.55;;;15.00;99.90;;;;;;4990877;28;20061;-75
2021/09/09 06:32:25;;;;;;;22.85;14.18;;;15.10;99.90;;;;;;4993984;28;20120;-76
2021/09/09 06:34:52;;;;;;;24.65;13.43;;;15.20;99.90;;;;;;4988798;28;20054;-76
2021/09/09 06:37:19;;;;;;;25.05;14.15;;;15.30;99.90;;;;;;4984743;28;20060;-76
2021/09/09 06:39:46;;;;;;;27.83;14.73;;;15.40;99.90;;;;;;4987444;28;20053;-76
2021/09/09 06:42:13;;;;;;;29.08;14.73;;;15.50;99.90;;;;;;4985525;28;20053;-77
2021/09/09 06:44:42;;;;;;;22.67;13.38;;;15.70;99.90;;;;;;4985980;28;20085;-75
2021/09/09 06:47:09;;;;;;;22.05;12.73;;;15.80;99.90;;;;;;4985017;28;20089;-79
2021/09/09 06:49:35;;;;;;;21.35;13.43;;;15.90;99.90;;;;;;4985265;28;20120;-76
2021/09/09 06:52:02;;;;;;;21.50;12.63;;;16.00;99.90;;;;;;4984263;28;20145;-77
2021/09/09 06:54:29;;;;;;;19.85;12.75;;;16.10;99.90;;;;;;4984057;28;20128;-76
2021/09/09 06:56:57;;;;;;;25.13;12.85;;;16.20;99.90;;;;;;4983295;28;20101;-80
2021/09/09 06:59:24;;;;;;;23.30;13.57;;;16.30;99.90;;;;;;4985469;28;20120;-78
2021/09/09 07:01:52;;;;;;;21.95;13.30;;;16.40;99.90;;;;;;4989130;28;20081;-80
2021/09/09 07:04:19;;;;;;;24.85;12.65;;;16.50;99.90;;;;;;4986927;28;20237;-81
2021/09/09 07:06:46;;;;;;;19.13;12.13;;;16.60;99.90;;;;;;4982768;28;20045;-81
2021/09/09 07:09:13;;;;;;;23.10;12.82;;;16.80;99.90;;;;;;4983843;28;20085;-81
2021/09/09 07:11:40;;;;;;;22.23;12.57;;;16.90;99.90;;;;;;4986144;28;20829;-79
2021/09/09 07:14:07;;;;;;;22.00;12.35;;;17.00;99.90;;;;;;4987585;28;20046;-78
2021/09/09 07:16:34;;;;;;;29.05;11.80;;;17.10;99.90;;;;;;4988552;28;20050;-78
2021/09/09 07:19:02;;;;;;;16.65;10.90;;;17.30;99.90;;;;;;4988198;28;20120;-78
2021/09/09 07:21:30;;;;;;;16.83;11.05;;;17.50;99.90;;;;;;4986367;28;20105;-78
2021/09/09 07:23:57;;;;;;;19.38;11.13;;;17.60;99.90;;;;;;4986634;28;20226;-77
2021/09/09 07:26:24;;;;;;;23.23;11.57;;;17.70;99.90;;;;;;4984174;28;20104;-78
2021/09/09 07:28:51;;;;;;;18.40;11.23;;;17.80;99.90;;;;;;4985965;28;20045;-78
2021/09/09 07:31:18;;;;;;;17.50;10.80;;;18.00;99.90;;;;;;4985643;28;20461;-78
2021/09/09 07:33:45;;;;;;;19.25;11.52;;;18.10;99.90;;;;;;4986898;28;20062;-74
2021/09/09 07:36:19;;;;;;;19.52;10.68;;;18.30;99.90;;;;;;4990131;28;20128;-80
2021/09/09 07:38:46;;;;;;;15.00;9.55;;;18.40;99.90;;;;;;4993310;28;20498;-77
2021/09/09 07:41:14;;;;;;;19.15;10.75;;;18.60;99.90;;;;;;4991065;28;20054;-77
2021/09/09 07:43:41;;;;;;;16.83;9.93;;;18.70;99.90;;;;;;4989568;28;20053;-76
2021/09/09 07:46:08;;;;;;;14.63;10.27;;;18.80;99.90;;;;;;4993138;28;20155;-75
2021/09/09 07:48:35;;;;;;;16.67;10.07;;;19.10;99.90;;;;;;4994942;28;20537;-74
2021/09/09 07:51:02;;;;;;;18.23;10.55;;;19.20;99.90;;;;;;4988350;28;20477;-75
2021/09/09 07:53:30;;;;;;;18.65;9.20;;;19.40;99.90;;;;;;4988505;28;20093;-75
2021/09/09 07:55:57;;;;;;;15.25;9.35;;;19.60;99.90;;;;;;4989601;28;20525;-75
2021/09/09 07:58:24;;;;;;;14.10;8.93;;;19.90;99.90;;;;;;4991965;28;20046;-75
2021/09/09 08:00:52;;;;;;;16.67;9.35;;;20.00;99.90;;;;;;4991197;28;20093;-75
2021/09/09 08:03:19;;;;;;;14.27;8.93;;;20.20;99.90;;;;;;4988880;28;20097;-74
2021/09/09 08:06:06;;;;;;;17.05;9.27;;;20.30;99.90;;;;;;4983731;28;20066;-74
2021/09/09 08:09:49;;;;;;;13.48;8.35;;;20.50;99.90;;;;;;5011855;28;20050;-74
2021/09/09 08:12:17;;;;;;;14.05;8.25;;;21.00;99.90;;;;;;4997519;28;20071;-75
2021/09/09 08:14:44;;;;;;;13.80;8.75;;;21.30;99.90;;;;;;4986563;28;20168;-75
2021/09/09 08:17:11;;;;;;;12.98;8.23;;;21.70;99.90;;;;;;4984857;28;20108;-75
2021/09/09 08:19:38;;;;;;;13.15;8.77;;;22.10;99.90;;;;;;4979868;28;20132;-74
2021/09/09 08:22:05;;;;;;;15.50;8.57;;;22.10;99.90;;;;;;4979619;28;20304;-75
2021/09/09 08:24:33;;;;;;;13.02;8.15;;;22.90;99.90;;;;;;4977371;28;20557;-75
2021/09/09 08:27:00;;;;;;;14.30;8.15;;;23.60;99.90;;;;;;4974544;28;20045;-74
2021/09/09 08:29:27;;;;;;;15.27;8.25;;;23.90;99.90;;;;;;4978548;28;20869;-75
2021/09/09 08:31:54;;;;;;;13.48;8.82;;;24.20;99.90;;;;;;4978191;28;20065;-75
2021/09/09 08:34:21;;;;;;;11.23;8.25;;;24.60;99.90;;;;;;4981820;28;20182;-74
2021/09/09 08:36:48;;;;;;;12.55;8.57;;;25.30;99.90;;;;;;4992324;28;20135;-75
2021/09/09 08:39:15;;;;;;;13.68;7.80;;;26.00;99.90;;;;;;4990499;28;20045;-75
2021/09/09 08:41:44;;;;;;;15.82;8.68;;;26.40;99.90;;;;;;4988581;28;20053;-75
2021/09/09 08:44:11;;;;;;;13.38;8.43;;;26.60;99.90;;;;;;4989222;28;20128;-74
2021/09/09 08:46:38;;;;;;;12.88;7.05;;;27.10;99.90;;;;;;4985410;28;20077;-75
2021/09/09 08:49:05;;;;;;;13.00;7.47;;;28.40;99.90;;;;;;4988995;28;20081;-75
2021/09/09 08:51:32;;;;;;;12.73;8.15;;;29.00;99.90;;;;;;4990161;28;20061;-74
2021/09/09 08:54:00;;;;;;;12.30;8.07;;;29.60;99.90;;;;;;4989873;28;20038;-74
2021/09/09 08:56:27;;;;;;;12.10;7.63;;;30.20;99.90;;;;;;4988727;28;20115;-74
2021/09/09 08:58:56;;;;;;;12.95;7.90;;;29.40;99.90;;;;;;4989926;28;20053;-75
2021/09/09 09:01:23;;;;;;;13.88;8.23;;;29.80;99.90;;;;;;4988493;28;20046;-74
2021/09/09 09:03:52;;;;;;;14.43;8.20;;;29.80;99.90;;;;;;4988012;28;20057;-75
2021/09/09 09:06:46;;;;;;;12.50;7.40;;;29.70;99.90;;;;;;4988821;28;20054;-74
2021/09/09 09:09:14;;;;;;;17.15;8.75;;;29.50;99.90;;;;;;4990919;28;20053;-75
2021/09/09 09:11:44;;;;;;;12.00;7.57;;;29.30;99.90;;;;;;4989104;28;20064;-75
2021/09/09 09:14:17;;;;;;;13.10;7.70;;;29.90;99.90;;;;;;4991537;28;20049;-78
2021/09/09 09:16:45;;;;;;;20.40;7.78;;;30.60;99.90;;;;;;4989667;28;20050;-77
2021/09/09 09:19:13;;;;;;;16.52;7.82;;;31.10;99.90;;;;;;4991239;28;20050;-75
2021/09/09 09:21:44;;;;;;;11.77;7.70;;;31.40;99.90;;;;;;4989447;28;20058;-75
2021/09/09 09:24:13;;;;;;;10.27;7.35;;;31.90;99.90;;;;;;4988809;28;20108;-74
2021/09/09 09:26:40;;;;;;;11.90;7.50;;;31.50;99.90;;;;;;4989105;28;20076;-75
2021/09/09 09:29:07;;;;;;;10.25;7.40;;;31.60;99.90;;;;;;4989281;28;20132;-75
2021/09/09 09:31:37;;;;;;;11.80;7.70;;;31.40;99.90;;;;;;4987798;28;20108;-75
2021/09/09 09:34:07;;;;;;;14.13;8.25;;;31.50;99.90;;;;;;4987985;28;20121;-75
2021/09/09 09:36:35;;;;;;;15.05;8.15;;;31.70;99.90;;;;;;4986752;28;20057;-75
2021/09/09 09:39:09;;;;;;;10.82;7.70;;;31.10;99.90;;;;;;4988191;28;20127;-75
2021/09/09 09:41:37;;;;;;;10.95;7.82;;;30.40;99.90;;;;;;4992127;28;20080;-75
2021/09/09 09:44:07;;;;;;;13.57;8.20;;;30.70;99.90;;;;;;4988024;28;20430;-75
2021/09/09 09:46:38;;;;;;;12.00;7.78;;;30.70;99.90;;;;;;4987485;28;20081;-75
2021/09/09 09:49:19;;;;;;;12.27;7.60;;;30.70;99.90;;;;;;4990751;28;20161;-75
2021/09/09 09:51:48;;;;;;;13.57;8.63;;;29.70;99.90;;;;;;4995649;28;20061;-75
2021/09/09 09:54:16;;;;;;;14.52;8.13;;;29.20;99.90;;;;;;4995079;28;20077;-75
2021/09/09 09:56:44;;;;;;;11.98;7.40;;;29.60;99.90;;;;;;4992174;28;20116;-75
2021/09/09 09:59:11;;;;;;;14.18;7.68;;;30.20;99.90;;;;;;4993199;28;20073;-75
2021/09/09 10:01:40;;;;;;;14.32;7.13;;;31.00;99.90;;;;;;4980757;28;20049;-76
2021/09/09 10:04:09;;;;;;;12.93;8.15;;;32.30;99.00;;;;;;4994498;28;20668;-75
2021/09/09 10:06:36;;;;;;;13.00;7.35;;;32.40;98.40;;;;;;4993086;28;20089;-75
2021/09/09 10:09:05;;;;;;;12.13;7.70;;;32.10;98.40;;;;;;4994095;28;20182;-75
2021/09/09 10:11:32;;;;;;;12.18;7.47;;;32.30;98.60;;;;;;4992969;28;20588;-75
2021/09/09 10:14:01;;;;;;;10.63;7.50;;;32.70;97.40;;;;;;4988856;28;20792;-76
2021/09/09 10:16:31;;;;;;;10.43;7.13;;;33.50;96.80;;;;;;4987197;28;20041;-77
2021/09/09 10:19:00;;;;;;;9.57;7.68;;;33.10;97.40;;;;;;4990604;28;20185;-75
2021/09/09 10:21:42;;;;;;;12.57;7.60;;;33.00;97.30;;;;;;4988531;28;20731;-75
2021/09/09 10:24:11;;;;;;;11.95;7.70;;;32.70;96.00;;;;;;4988113;28;20659;-76
2021/09/09 10:26:38;;;;;;;12.45;7.78;;;33.20;96.30;;;;;;4987462;28;20060;-75
2021/09/09 10:29:08;;;;;;;11.27;7.50;;;34.20;94.50;;;;;;4991004;28;20103;-75
2021/09/09 10:31:40;;;;;;;9.88;7.38;;;33.50;94.50;;;;;;4993118;28;20107;-75
2021/09/09 10:34:10;;;;;;;14.38;7.60;;;33.90;94.50;;;;;;4989518;28;20123;-75
2021/09/09 10:36:40;;;;;;;12.70;7.82;;;33.70;94.30;;;;;;4992910;28;20095;-75
2021/09/09 10:39:08;;;;;;;13.20;7.35;;;34.10;93.60;;;;;;4990155;28;20053;-76
2021/09/09 10:41:36;;;;;;;9.65;7.72;;;34.50;92.60;;;;;;4988751;28;20060;-76
2021/09/09 10:44:05;;;;;;;14.68;8.32;;;34.00;93.10;;;;;;4988069;28;20057;-76
2021/09/09 10:46:34;;;;;;;10.52;8.25;;;34.70;92.90;;;;;;4985816;28;20057;-76
2021/09/09 10:49:11;;;;;;;10.98;7.97;;;34.40;92.50;;;;;;4986187;28;20601;-78
2021/09/09 10:51:39;;;;;;;17.92;7.68;;;34.50;91.90;;;;;;4987646;28;20060;-77
2021/09/09 10:54:15;;;;;;;12.10;8.40;;;34.60;91.60;;;;;;4987600;28;20064;-75
2021/09/09 10:56:43;;;;;;;13.13;7.28;;;33.80;92.70;;;;;;4987292;28;20112;-75
2021/09/09 10:59:12;;;;;;;11.15;7.50;;;33.60;92.90;;;;;;4986297;28;20498;-75
2021/09/09 11:01:43;;;;;;;10.15;7.40;;;33.80;91.90;;;;;;4985894;28;20054;-75
2021/09/09 11:07:21;;;;;;;11.48;7.32;;;33.50;92.10;;;;;;5084087;27;19931;-76
2021/09/09 11:09:48;;;;;;;12.90;8.05;;;33.90;91.60;;;;;;5076099;28;20047;-76
2021/09/09 11:12:15;;;;;;;11.73;8.07;;;33.90;91.80;;;;;;5073219;28;20129;-76
2021/09/09 11:14:42;;;;;;;12.07;7.70;;;33.60;92.40;;;;;;5067248;28;20052;-76
2021/09/09 11:17:20;;;;;;;10.18;6.82;;;33.70;91.90;;;;;;5064914;28;20112;-74
2021/09/09 11:20:01;;;;;;;13.55;8.18;;;33.30;91.80;;;;;;5073345;28;20076;-74
2021/09/09 11:22:29;;;;;;;11.68;8.00;;;33.00;92.20;;;;;;5072688;28;20133;-75
2021/09/09 11:24:58;;;;;;;10.82;7.88;;;33.20;92.20;;;;;;5077495;28;20048;-74
2021/09/09 11:27:29;;;;;;;13.10;8.15;;;33.80;91.90;;;;;;5076227;28;20052;-74
2021/09/09 11:29:58;;;;;;;12.70;7.78;;;33.40;92.20;;;;;;5075765;28;20511;-74
2021/09/09 11:32:25;;;;;;;16.15;9.68;;;33.50;92.10;;;;;;5077504;28;20074;-75
2021/09/09 11:34:52;;;;;;;12.27;8.05;;;34.20;91.20;;;;;;5070243;28;20542;-74
2021/09/09 11:37:19;;;;;;;11.75;8.32;;;33.90;91.50;;;;;;5070970;28;20527;-74
2021/09/09 11:39:47;;;;;;;11.13;7.15;;;33.40;92.00;;;;;;5069988;28;20045;-74
2021/09/09 11:42:14;;;;;;;11.07;7.72;;;33.20;92.90;;;;;;5069025;28;20048;-74
2021/09/09 11:44:42;;;;;;;14.80;9.20;;;33.40;92.10;;;;;;5065464;28;20048;-75
2021/09/09 11:47:15;;;;;;;17.27;8.18;;;33.50;92.20;;;;;;5071166;28;20436;-74
